sensor_id;sensor_type;location;lat;lon;timestamp;temperature;humidity
4183;DHT22;2105;52.300;9.182;2022-09-01T00:01:16;12.80;1.00
4183;DHT22;2105;52.300;9.182;2022-09-01T00:03:46;12.70;1.00
4183;DHT22;2105;52.300;9.182;2022-09-01T00:06:14;12.80;1.00
4183;DHT22;2105;52.300;9.182;2022-09-01T00:08:46;12.60;1.00
4183;DHT22;2105;52.300;9.182;2022-09-01T00:11:13;12.70;1.00
4183;DHT22;2105;52.300;9.182;2022-09-01T00:13:40;12.70;1.00
4183;DHT22;2105;52.300;9.182;2022-09-01T00:16:06;12.70;1.00
4183;DHT22;2105;52.300;9.182;2022-09-01T00:18:35;12.70;1.00
4183;DHT22;2105;52.300;9.182;2022-09-01T00:21:02;12.60;1.00
4183;DHT22;2105;52.300;9.182;2022-09-01T00:23:29;12.60;47.40
4183;DHT22;2105;52.300;9.182;2022-09-01T00:25:56;12.50;99.90
4183;DHT22;2105;52.300;9.182;2022-09-01T00:28:22;12.50;99.90
4183;DHT22;2105;52.300;9.182;2022-09-01T00:30:49;12.60;99.90
4183;DHT22;2105;52.300;9.182;2022-09-01T00:33:16;12.60;99.90
4183;DHT22;2105;52.300;9.182;2022-09-01T00:35:44;12.50;99.90
4183;DHT22;2105;52.300;9.182;2022-09-01T00:38:11;12.50;99.90
4183;DHT22;2105;52.300;9.182;2022-09-01T00:40:38;12.50;99.90
4183;DHT22;2105;52.300;9.182;2022-09-01T00:43:11;12.50;99.90
4183;DHT22;2105;52.300;9.182;2022-09-01T00:45:39;12.50;1.00
4183;DHT22;2105;52.300;9.182;2022-09-01T00:48:07;12.50;99.90
4183;DHT22;2105;52.300;9.182;2022-09-01T00:50:34;12.50;1.00
4183;DHT22;2105;52.300;9.182;2022-09-01T00:53:04;12.60;1.00
4183;DHT22;2105;52.300;9.182;2022-09-01T00:55:33;12.50;1.00
4183;DHT22;2105;52.300;9.182;2022-09-01T00:58:01;12.50;1.00
4183;DHT22;2105;52.300;9.182;2022-09-01T01:00:30;12.50;1.00
4183;DHT22;2105;52.300;9.182;2022-09-01T01:02:57;12.50;1.00
4183;DHT22;2105;52.300;9.182;2022-09-01T01:05:28;12.50;1.00
4183;DHT22;2105;52.300;9.182;2022-09-01T01:07:58;12.60;1.00
4183;DHT22;2105;52.300;9.182;2022-09-01T01:10:30;12.70;1.00
4183;DHT22;2105;52.300;9.182;2022-09-01T01:12:57;12.70;1.00
4183;DHT22;2105;52.300;9.182;2022-09-01T01:15:27;12.70;1.00
4183;DHT22;2105;52.300;9.182;2022-09-01T01:17:54;12.70;1.00
4183;DHT22;2105;52.300;9.182;2022-09-01T01:20:25;12.70;1.00
4183;DHT22;2105;52.300;9.182;2022-09-01T01:23:16;12.60;1.00
4183;DHT22;2105;52.300;9.182;2022-09-01T01:25:50;12.50;1.00
4183;DHT22;2105;52.300;9.182;2022-09-01T01:28:20;12.50;99.90
4183;DHT22;2105;52.300;9.182;2022-09-01T01:30:49;12.40;46.30
4183;DHT22;2105;52.300;9.182;2022-09-01T01:33:17;12.30;1.00
4183;DHT22;2105;52.300;9.182;2022-09-01T01:35:43;12.10;99.90
4183;DHT22;2105;52.300;9.182;2022-09-01T01:38:12;12.00;1.00
4183;DHT22;2105;52.300;9.182;2022-09-01T01:40:40;12.00;1.00
4183;DHT22;2105;52.300;9.182;2022-09-01T01:43:08;12.00;1.00
4183;DHT22;2105;52.300;9.182;2022-09-01T01:45:45;12.00;1.00
4183;DHT22;2105;52.300;9.182;2022-09-01T01:48:13;12.10;27.10
4183;DHT22;2105;52.300;9.182;2022-09-01T01:50:47;12.10;1.00
4183;DHT22;2105;52.300;9.182;2022-09-01T01:53:14;12.10;1.00
4183;DHT22;2105;52.300;9.182;2022-09-01T01:55:44;12.10;1.00
4183;DHT22;2105;52.300;9.182;2022-09-01T01:58:14;12.10;99.90
4183;DHT22;2105;52.300;9.182;2022-09-01T02:00:45;12.00;1.00
4183;DHT22;2105;52.300;9.182;2022-09-01T02:03:13;11.90;1.00
4183;DHT22;2105;52.300;9.182;2022-09-01T02:05:44;11.70;1.00
4183;DHT22;2105;52.300;9.182;2022-09-01T02:08:12;11.80;99.90
4183;DHT22;2105;52.300;9.182;2022-09-01T02:10:41;11.80;1.00
4183;DHT22;2105;52.300;9.182;2022-09-01T02:13:10;11.90;1.00
4183;DHT22;2105;52.300;9.182;2022-09-01T02:15:44;11.90;1.00
4183;DHT22;2105;52.300;9.182;2022-09-01T02:18:12;11.70;1.00
4183;DHT22;2105;52.300;9.182;2022-09-01T02:20:41;11.70;23.00
4183;DHT22;2105;52.300;9.182;2022-09-01T02:23:08;11.70;1.00
4183;DHT22;2105;52.300;9.182;2022-09-01T02:25:36;11.60;1.00
4183;DHT22;2105;52.300;9.182;2022-09-01T02:28:04;11.60;1.00
4183;DHT22;2105;52.300;9.182;2022-09-01T02:30:34;11.50;70.00
4183;DHT22;2105;52.300;9.182;2022-09-01T02:33:03;11.50;99.90
4183;DHT22;2105;52.300;9.182;2022-09-01T02:35:30;11.50;99.90
4183;DHT22;2105;52.300;9.182;2022-09-01T02:38:02;11.60;1.00
4183;DHT22;2105;52.300;9.182;2022-09-01T02:40:29;11.50;1.00
4183;DHT22;2105;52.300;9.182;2022-09-01T02:42:56;11.50;1.00
4183;DHT22;2105;52.300;9.182;2022-09-01T02:45:24;11.40;1.00
4183;DHT22;2105;52.300;9.182;2022-09-01T02:47:51;11.30;99.90
4183;DHT22;2105;52.300;9.182;2022-09-01T02:50:20;11.30;1.00
4183;DHT22;2105;52.300;9.182;2022-09-01T02:52:47;11.30;99.90
4183;DHT22;2105;52.300;9.182;2022-09-01T02:55:14;11.30;99.90
4183;DHT22;2105;52.300;9.182;2022-09-01T02:57:48;11.40;99.90
4183;DHT22;2105;52.300;9.182;2022-09-01T03:00:16;11.30;1.00
4183;DHT22;2105;52.300;9.182;2022-09-01T03:02:51;11.20;1.00
4183;DHT22;2105;52.300;9.182;2022-09-01T03:05:20;11.20;99.90
4183;DHT22;2105;52.300;9.182;2022-09-01T03:07:51;11.10;99.90
4183;DHT22;2105;52.300;9.182;2022-09-01T03:10:22;11.10;1.00
4183;DHT22;2105;52.300;9.182;2022-09-01T03:12:52;11.10;99.90
4183;DHT22;2105;52.300;9.182;2022-09-01T03:15:19;11.20;99.90
4183;DHT22;2105;52.300;9.182;2022-09-01T03:17:46;11.10;99.90
4183;DHT22;2105;52.300;9.182;2022-09-01T03:20:13;11.10;99.90
4183;DHT22;2105;52.300;9.182;2022-09-01T03:22:41;11.20;99.90
4183;DHT22;2105;52.300;9.182;2022-09-01T03:25:08;11.10;99.90
4183;DHT22;2105;52.300;9.182;2022-09-01T03:27:35;11.10;96.60
4183;DHT22;2105;52.300;9.182;2022-09-01T03:30:02;11.20;1.00
4183;DHT22;2105;52.300;9.182;2022-09-01T03:32:29;11.10;1.00
4183;DHT22;2105;52.300;9.182;2022-09-01T03:34:57;11.00;99.90
4183;DHT22;2105;52.300;9.182;2022-09-01T03:37:24;11.00;1.00
4183;DHT22;2105;52.300;9.182;2022-09-01T03:39:52;10.90;1.00
4183;DHT22;2105;52.300;9.182;2022-09-01T03:42:19;10.70;99.90
4183;DHT22;2105;52.300;9.182;2022-09-01T03:44:50;10.80;1.00
4183;DHT22;2105;52.300;9.182;2022-09-01T03:47:18;10.90;1.00
4183;DHT22;2105;52.300;9.182;2022-09-01T03:49:45;11.00;1.00
4183;DHT22;2105;52.300;9.182;2022-09-01T03:52:13;11.00;1.00
4183;DHT22;2105;52.300;9.182;2022-09-01T03:54:42;11.00;1.00
4183;DHT22;2105;52.300;9.182;2022-09-01T03:57:11;11.00;1.00
4183;DHT22;2105;52.300;9.182;2022-09-01T03:59:37;11.00;1.00
4183;DHT22;2105;52.300;9.182;2022-09-01T04:02:07;11.00;1.00
4183;DHT22;2105;52.300;9.182;2022-09-01T04:04:35;11.00;1.00
4183;DHT22;2105;52.300;9.182;2022-09-01T04:07:02;11.00;1.00
4183;DHT22;2105;52.300;9.182;2022-09-01T04:09:32;11.00;1.00
4183;DHT22;2105;52.300;9.182;2022-09-01T04:11:59;11.00;1.00
4183;DHT22;2105;52.300;9.182;2022-09-01T04:14:27;11.00;1.00
4183;DHT22;2105;52.300;9.182;2022-09-01T04:16:54;10.90;1.00
4183;DHT22;2105;52.300;9.182;2022-09-01T04:19:38;10.90;1.00
4183;DHT22;2105;52.300;9.182;2022-09-01T04:22:06;11.00;1.00
4183;DHT22;2105;52.300;9.182;2022-09-01T04:24:38;11.00;1.00
4183;DHT22;2105;52.300;9.182;2022-09-01T04:27:10;11.00;1.00
4183;DHT22;2105;52.300;9.182;2022-09-01T04:29:38;11.00;1.00
4183;DHT22;2105;52.300;9.182;2022-09-01T04:32:07;11.10;1.00
4183;DHT22;2105;52.300;9.182;2022-09-01T04:34:37;11.00;99.90
4183;DHT22;2105;52.300;9.182;2022-09-01T04:37:09;10.90;99.90
4183;DHT22;2105;52.300;9.182;2022-09-01T04:39:37;10.90;99.90
4183;DHT22;2105;52.300;9.182;2022-09-01T04:42:05;10.80;99.90
4183;DHT22;2105;52.300;9.182;2022-09-01T04:44:34;10.60;1.00
4183;DHT22;2105;52.300;9.182;2022-09-01T04:47:02;10.50;1.00
4183;DHT22;2105;52.300;9.182;2022-09-01T04:49:35;10.50;1.00
4183;DHT22;2105;52.300;9.182;2022-09-01T04:52:03;10.50;1.00
4183;DHT22;2105;52.300;9.182;2022-09-01T04:54:29;10.60;1.00
4183;DHT22;2105;52.300;9.182;2022-09-01T04:57:00;10.70;1.00
4183;DHT22;2105;52.300;9.182;2022-09-01T04:59:26;10.80;1.00
4183;DHT22;2105;52.300;9.182;2022-09-01T05:01:55;10.80;1.00
4183;DHT22;2105;52.300;9.182;2022-09-01T05:04:27;10.90;1.00
4183;DHT22;2105;52.300;9.182;2022-09-01T05:06:58;10.90;1.00
4183;DHT22;2105;52.300;9.182;2022-09-01T05:09:27;11.00;1.00
4183;DHT22;2105;52.300;9.182;2022-09-01T05:11:55;11.00;1.00
4183;DHT22;2105;52.300;9.182;2022-09-01T05:14:22;11.10;1.00
4183;DHT22;2105;52.300;9.182;2022-09-01T05:16:50;11.20;1.00
4183;DHT22;2105;52.300;9.182;2022-09-01T05:19:21;11.20;1.00
4183;DHT22;2105;52.300;9.182;2022-09-01T05:21:51;11.40;1.00
4183;DHT22;2105;52.300;9.182;2022-09-01T05:24:23;11.50;1.00
4183;DHT22;2105;52.300;9.182;2022-09-01T05:26:53;11.60;99.90
4183;DHT22;2105;52.300;9.182;2022-09-01T05:29:20;11.70;1.00
4183;DHT22;2105;52.300;9.182;2022-09-01T05:31:47;11.80;1.00
4183;DHT22;2105;52.300;9.182;2022-09-01T05:34:15;11.90;1.00
4183;DHT22;2105;52.300;9.182;2022-09-01T05:36:53;12.00;99.90
4183;DHT22;2105;52.300;9.182;2022-09-01T05:39:23;12.00;99.90
4183;DHT22;2105;52.300;9.182;2022-09-01T05:41:50;12.10;99.90
4183;DHT22;2105;52.300;9.182;2022-09-01T05:44:18;12.20;99.90
4183;DHT22;2105;52.300;9.182;2022-09-01T05:46:47;12.30;99.90
4183;DHT22;2105;52.300;9.182;2022-09-01T05:49:15;12.40;99.90
4183;DHT22;2105;52.300;9.182;2022-09-01T05:51:45;12.50;13.80
4183;DHT22;2105;52.300;9.182;2022-09-01T05:54:15;12.50;1.00
4183;DHT22;2105;52.300;9.182;2022-09-01T05:56:43;12.60;1.00
4183;DHT22;2105;52.300;9.182;2022-09-01T05:59:10;12.70;1.00
4183;DHT22;2105;52.300;9.182;2022-09-01T06:01:37;12.70;1.00
4183;DHT22;2105;52.300;9.182;2022-09-01T06:04:07;12.80;99.90
4183;DHT22;2105;52.300;9.182;2022-09-01T06:06:37;12.90;99.90
4183;DHT22;2105;52.300;9.182;2022-09-01T06:09:05;12.90;1.00
4183;DHT22;2105;52.300;9.182;2022-09-01T06:11:34;13.10;1.00
4183;DHT22;2105;52.300;9.182;2022-09-01T06:14:01;13.20;1.00
4183;DHT22;2105;52.300;9.182;2022-09-01T06:16:28;13.30;99.90
4183;DHT22;2105;52.300;9.182;2022-09-01T06:18:56;13.40;99.90
4183;DHT22;2105;52.300;9.182;2022-09-01T06:21:24;13.60;1.00
4183;DHT22;2105;52.300;9.182;2022-09-01T06:23:54;13.60;1.00
4183;DHT22;2105;52.300;9.182;2022-09-01T06:26:23;13.80;99.90
4183;DHT22;2105;52.300;9.182;2022-09-01T06:28:55;13.90;99.90
4183;DHT22;2105;52.300;9.182;2022-09-01T06:31:23;14.00;96.00
4183;DHT22;2105;52.300;9.182;2022-09-01T06:33:51;14.10;1.00
4183;DHT22;2105;52.300;9.182;2022-09-01T06:36:19;14.30;1.00
4183;DHT22;2105;52.300;9.182;2022-09-01T06:38:48;14.40;1.00
4183;DHT22;2105;52.300;9.182;2022-09-01T06:41:17;14.50;99.90
4183;DHT22;2105;52.300;9.182;2022-09-01T06:43:45;14.60;99.90
4183;DHT22;2105;52.300;9.182;2022-09-01T06:46:14;14.70;99.90
4183;DHT22;2105;52.300;9.182;2022-09-01T06:48:41;14.80;99.90
4183;DHT22;2105;52.300;9.182;2022-09-01T06:51:12;14.90;7.20
4183;DHT22;2105;52.300;9.182;2022-09-01T06:53:40;15.00;1.00
4183;DHT22;2105;52.300;9.182;2022-09-01T06:56:07;15.20;1.00
4183;DHT22;2105;52.300;9.182;2022-09-01T06:58:35;15.30;1.00
4183;DHT22;2105;52.300;9.182;2022-09-01T07:01:05;15.40;1.00
4183;DHT22;2105;52.300;9.182;2022-09-01T07:03:34;15.60;99.90
4183;DHT22;2105;52.300;9.182;2022-09-01T07:06:05;15.70;99.90
4183;DHT22;2105;52.300;9.182;2022-09-01T07:08:32;16.00;1.00
4183;DHT22;2105;52.300;9.182;2022-09-01T07:11:05;16.20;1.00
4183;DHT22;2105;52.300;9.182;2022-09-01T07:13:33;16.40;99.90
4183;DHT22;2105;52.300;9.182;2022-09-01T07:16:01;16.50;99.90
4183;DHT22;2105;52.300;9.182;2022-09-01T07:18:32;16.50;99.90
4183;DHT22;2105;52.300;9.182;2022-09-01T07:21:00;16.60;99.90
4183;DHT22;2105;52.300;9.182;2022-09-01T07:23:32;16.80;74.70
4183;DHT22;2105;52.300;9.182;2022-09-01T07:25:59;17.20;1.00
4183;DHT22;2105;52.300;9.182;2022-09-01T07:28:26;18.50;99.90
4183;DHT22;2105;52.300;9.182;2022-09-01T07:30:57;20.20;1.00
4183;DHT22;2105;52.300;9.182;2022-09-01T07:33:25;21.40;99.90
4183;DHT22;2105;52.300;9.182;2022-09-01T07:35:54;22.10;99.90
4183;DHT22;2105;52.300;9.182;2022-09-01T07:38:23;22.30;99.90
4183;DHT22;2105;52.300;9.182;2022-09-01T07:40:51;22.70;99.90
4183;DHT22;2105;52.300;9.182;2022-09-01T07:43:20;23.00;99.90
4183;DHT22;2105;52.300;9.182;2022-09-01T07:45:50;23.00;99.90
4183;DHT22;2105;52.300;9.182;2022-09-01T07:48:22;22.90;99.90
4183;DHT22;2105;52.300;9.182;2022-09-01T07:50:51;22.70;99.90
4183;DHT22;2105;52.300;9.182;2022-09-01T07:53:20;22.90;94.70
4183;DHT22;2105;52.300;9.182;2022-09-01T07:55:52;22.80;99.80
4183;DHT22;2105;52.300;9.182;2022-09-01T07:58:23;23.10;91.20
4183;DHT22;2105;52.300;9.182;2022-09-01T08:00:51;23.30;48.60
4183;DHT22;2105;52.300;9.182;2022-09-01T08:03:20;23.40;70.90
4183;DHT22;2105;52.300;9.182;2022-09-01T08:05:48;23.40;43.30
4183;DHT22;2105;52.300;9.182;2022-09-01T08:08:18;23.20;57.00
4183;DHT22;2105;52.300;9.182;2022-09-01T08:10:46;22.80;81.00
4183;DHT22;2105;52.300;9.182;2022-09-01T08:13:15;22.60;96.70
4183;DHT22;2105;52.300;9.182;2022-09-01T08:15:43;22.20;99.90
4183;DHT22;2105;52.300;9.182;2022-09-01T08:18:10;21.70;99.90
4183;DHT22;2105;52.300;9.182;2022-09-01T08:20:39;21.60;99.90
4183;DHT22;2105;52.300;9.182;2022-09-01T08:23:10;21.30;99.90
4183;DHT22;2105;52.300;9.182;2022-09-01T08:25:38;21.10;99.90
4183;DHT22;2105;52.300;9.182;2022-09-01T08:28:06;20.90;99.90
4183;DHT22;2105;52.300;9.182;2022-09-01T08:30:38;20.80;99.90
4183;DHT22;2105;52.300;9.182;2022-09-01T08:33:05;20.80;99.90
4183;DHT22;2105;52.300;9.182;2022-09-01T08:35:32;20.80;99.90
4183;DHT22;2105;52.300;9.182;2022-09-01T08:37:58;20.60;99.90
4183;DHT22;2105;52.300;9.182;2022-09-01T08:40:25;20.50;99.90
4183;DHT22;2105;52.300;9.182;2022-09-01T08:42:56;20.50;99.90
4183;DHT22;2105;52.300;9.182;2022-09-01T08:45:31;20.70;99.90
4183;DHT22;2105;52.300;9.182;2022-09-01T08:48:07;20.60;99.90
4183;DHT22;2105;52.300;9.182;2022-09-01T08:50:39;20.50;99.90
4183;DHT22;2105;52.300;9.182;2022-09-01T08:53:11;20.80;99.90
4183;DHT22;2105;52.300;9.182;2022-09-01T08:55:43;21.00;99.90
4183;DHT22;2105;52.300;9.182;2022-09-01T08:58:13;21.00;99.90
4183;DHT22;2105;52.300;9.182;2022-09-01T09:00:43;21.10;99.90
4183;DHT22;2105;52.300;9.182;2022-09-01T09:03:18;21.20;99.90
4183;DHT22;2105;52.300;9.182;2022-09-01T09:05:58;21.50;99.90
4183;DHT22;2105;52.300;9.182;2022-09-01T09:08:50;21.30;99.90
4183;DHT22;2105;52.300;9.182;2022-09-01T09:11:36;21.40;99.90
4183;DHT22;2105;52.300;9.182;2022-09-01T09:14:10;21.50;99.90
4183;DHT22;2105;52.300;9.182;2022-09-01T09:16:40;21.50;99.90
4183;DHT22;2105;52.300;9.182;2022-09-01T09:19:12;21.60;99.90
4183;DHT22;2105;52.300;9.182;2022-09-01T09:21:43;21.70;99.90
4183;DHT22;2105;52.300;9.182;2022-09-01T09:24:15;21.70;99.90
4183;DHT22;2105;52.300;9.182;2022-09-01T09:26:47;21.60;99.90
4183;DHT22;2105;52.300;9.182;2022-09-01T09:29:14;21.80;99.90
4183;DHT22;2105;52.300;9.182;2022-09-01T09:31:41;21.90;97.10
4183;DHT22;2105;52.300;9.182;2022-09-01T09:34:29;22.00;99.90
4183;DHT22;2105;52.300;9.182;2022-09-01T09:37:00;22.00;75.50
4183;DHT22;2105;52.300;9.182;2022-09-01T09:39:27;21.90;57.00
4183;DHT22;2105;52.300;9.182;2022-09-01T09:42:04;22.00;43.80
4183;DHT22;2105;52.300;9.182;2022-09-01T09:44:39;21.90;50.20
4183;DHT22;2105;52.300;9.182;2022-09-01T09:47:08;21.90;34.10
4183;DHT22;2105;52.300;9.182;2022-09-01T09:49:36;21.90;55.10
4183;DHT22;2105;52.300;9.182;2022-09-01T09:52:15;22.10;71.30
4183;DHT22;2105;52.300;9.182;2022-09-01T09:54:58;22.20;20.30
4183;DHT22;2105;52.300;9.182;2022-09-01T09:57:25;22.20;9.30
4183;DHT22;2105;52.300;9.182;2022-09-01T09:59:56;22.40;6.30
4183;DHT22;2105;52.300;9.182;2022-09-01T10:02:26;22.40;1.00
4183;DHT22;2105;52.300;9.182;2022-09-01T10:04:58;22.40;1.00
4183;DHT22;2105;52.300;9.182;2022-09-01T10:07:31;22.60;1.00
4183;DHT22;2105;52.300;9.182;2022-09-01T10:09:59;22.60;1.00
4183;DHT22;2105;52.300;9.182;2022-09-01T10:12:28;22.80;1.00
4183;DHT22;2105;52.300;9.182;2022-09-01T10:14:59;23.00;1.00
4183;DHT22;2105;52.300;9.182;2022-09-01T10:17:29;23.10;1.00
4183;DHT22;2105;52.300;9.182;2022-09-01T10:20:01;23.20;1.00
4183;DHT22;2105;52.300;9.182;2022-09-01T10:22:31;23.20;1.00
4183;DHT22;2105;52.300;9.182;2022-09-01T10:24:59;23.40;1.00
4183;DHT22;2105;52.300;9.182;2022-09-01T10:27:29;23.50;1.00
4183;DHT22;2105;52.300;9.182;2022-09-01T10:30:04;23.30;1.00
4183;DHT22;2105;52.300;9.182;2022-09-01T10:32:36;23.50;1.00
4183;DHT22;2105;52.300;9.182;2022-09-01T10:35:07;23.50;1.00
4183;DHT22;2105;52.300;9.182;2022-09-01T10:37:35;23.50;1.00
4183;DHT22;2105;52.300;9.182;2022-09-01T10:40:15;23.30;1.00
4183;DHT22;2105;52.300;9.182;2022-09-01T10:42:45;23.40;1.00
4183;DHT22;2105;52.300;9.182;2022-09-01T10:45:18;23.50;1.00
4183;DHT22;2105;52.300;9.182;2022-09-01T10:47:47;23.40;1.00
4183;DHT22;2105;52.300;9.182;2022-09-01T10:50:26;23.40;1.00
4183;DHT22;2105;52.300;9.182;2022-09-01T10:53:06;23.60;1.00
4183;DHT22;2105;52.300;9.182;2022-09-01T10:55:46;23.80;1.00
4183;DHT22;2105;52.300;9.182;2022-09-01T11:01:04;24.50;1.00
4183;DHT22;2105;52.300;9.182;2022-09-01T11:03:52;24.60;1.00
4183;DHT22;2105;52.300;9.182;2022-09-01T11:06:53;24.30;1.00
4183;DHT22;2105;52.300;9.182;2022-09-01T11:09:24;24.00;1.00
4183;DHT22;2105;52.300;9.182;2022-09-01T11:14:51;24.40;1.00
4183;DHT22;2105;52.300;9.182;2022-09-01T11:17:20;24.40;1.00
4183;DHT22;2105;52.300;9.182;2022-09-01T11:20:04;24.20;1.00
4183;DHT22;2105;52.300;9.182;2022-09-01T11:22:37;24.30;1.00
4183;DHT22;2105;52.300;9.182;2022-09-01T11:31:10;24.90;1.00
4183;DHT22;2105;52.300;9.182;2022-09-01T11:33:49;24.90;1.00
4183;DHT22;2105;52.300;9.182;2022-09-01T11:36:26;24.80;1.00
4183;DHT22;2105;52.300;9.182;2022-09-01T11:39:01;24.70;1.00
4183;DHT22;2105;52.300;9.182;2022-09-01T11:41:31;24.20;1.00
4183;DHT22;2105;52.300;9.182;2022-09-01T11:44:01;24.70;1.00
4183;DHT22;2105;52.300;9.182;2022-09-01T11:46:30;24.70;1.00
4183;DHT22;2105;52.300;9.182;2022-09-01T11:49:04;24.70;1.00
4183;DHT22;2105;52.300;9.182;2022-09-01T11:51:42;24.30;1.00
4183;DHT22;2105;52.300;9.182;2022-09-01T11:54:11;23.80;1.00
4183;DHT22;2105;52.300;9.182;2022-09-01T11:56:38;23.50;1.00
4183;DHT22;2105;52.300;9.182;2022-09-01T11:59:04;23.80;1.00
4183;DHT22;2105;52.300;9.182;2022-09-01T12:01:33;24.10;1.00
4183;DHT22;2105;52.300;9.182;2022-09-01T12:04:18;24.40;1.00
4183;DHT22;2105;52.300;9.182;2022-09-01T12:06:54;24.00;1.00
4183;DHT22;2105;52.300;9.182;2022-09-01T12:09:31;23.80;1.00
4183;DHT22;2105;52.300;9.182;2022-09-01T12:11:58;23.60;1.00
4183;DHT22;2105;52.300;9.182;2022-09-01T12:14:25;23.50;1.00
4183;DHT22;2105;52.300;9.182;2022-09-01T12:16:57;23.30;1.00
4183;DHT22;2105;52.300;9.182;2022-09-01T12:19:27;23.30;1.00
4183;DHT22;2105;52.300;9.182;2022-09-01T12:22:00;23.20;1.00
4183;DHT22;2105;52.300;9.182;2022-09-01T12:24:31;23.20;1.00
4183;DHT22;2105;52.300;9.182;2022-09-01T12:26:59;23.20;1.00
4183;DHT22;2105;52.300;9.182;2022-09-01T12:29:27;23.30;1.00
4183;DHT22;2105;52.300;9.182;2022-09-01T12:31:54;23.70;1.00
4183;DHT22;2105;52.300;9.182;2022-09-01T12:34:27;24.40;1.00
4183;DHT22;2105;52.300;9.182;2022-09-01T12:37:10;24.70;1.00
4183;DHT22;2105;52.300;9.182;2022-09-01T12:39:39;24.40;1.00
4183;DHT22;2105;52.300;9.182;2022-09-01T12:42:10;23.90;1.00
4183;DHT22;2105;52.300;9.182;2022-09-01T12:44:46;23.60;1.00
4183;DHT22;2105;52.300;9.182;2022-09-01T12:47:43;23.50;1.00
4183;DHT22;2105;52.300;9.182;2022-09-01T12:50:40;24.10;1.00
4183;DHT22;2105;52.300;9.182;2022-09-01T12:53:18;25.00;1.00
4183;DHT22;2105;52.300;9.182;2022-09-01T12:55:57;25.50;99.90
4183;DHT22;2105;52.300;9.182;2022-09-01T12:58:26;25.80;99.90
4183;DHT22;2105;52.300;9.182;2022-09-01T13:00:57;25.90;99.90
4183;DHT22;2105;52.300;9.182;2022-09-01T13:03:24;25.60;99.90
4183;DHT22;2105;52.300;9.182;2022-09-01T13:05:52;25.30;99.90
4183;DHT22;2105;52.300;9.182;2022-09-01T13:08:21;25.40;99.90
4183;DHT22;2105;52.300;9.182;2022-09-01T13:10:51;25.70;99.90
4183;DHT22;2105;52.300;9.182;2022-09-01T13:13:21;25.50;99.90
4183;DHT22;2105;52.300;9.182;2022-09-01T13:15:50;25.80;99.90
4183;DHT22;2105;52.300;9.182;2022-09-01T13:18:18;26.00;99.90
4183;DHT22;2105;52.300;9.182;2022-09-01T13:20:46;25.90;99.90
4183;DHT22;2105;52.300;9.182;2022-09-01T13:23:12;25.90;99.90
4183;DHT22;2105;52.300;9.182;2022-09-01T13:25:40;25.50;99.90
4183;DHT22;2105;52.300;9.182;2022-09-01T13:28:09;25.40;99.90
4183;DHT22;2105;52.300;9.182;2022-09-01T13:30:37;25.50;99.90
4183;DHT22;2105;52.300;9.182;2022-09-01T13:33:05;25.60;99.90
4183;DHT22;2105;52.300;9.182;2022-09-01T13:35:32;25.90;99.90
4183;DHT22;2105;52.300;9.182;2022-09-01T13:37:58;25.90;99.90
4183;DHT22;2105;52.300;9.182;2022-09-01T13:40:26;25.60;99.90
4183;DHT22;2105;52.300;9.182;2022-09-01T13:42:52;25.40;99.90
4183;DHT22;2105;52.300;9.182;2022-09-01T13:45:21;24.80;99.90
4183;DHT22;2105;52.300;9.182;2022-09-01T13:47:51;24.90;99.90
4183;DHT22;2105;52.300;9.182;2022-09-01T13:50:19;25.40;99.90
4183;DHT22;2105;52.300;9.182;2022-09-01T13:52:49;25.30;99.90
4183;DHT22;2105;52.300;9.182;2022-09-01T13:55:17;25.50;99.90
4183;DHT22;2105;52.300;9.182;2022-09-01T13:57:45;25.60;99.90
4183;DHT22;2105;52.300;9.182;2022-09-01T14:00:14;25.40;99.90
4183;DHT22;2105;52.300;9.182;2022-09-01T14:02:44;25.50;99.90
4183;DHT22;2105;52.300;9.182;2022-09-01T14:05:17;25.70;99.90
4183;DHT22;2105;52.300;9.182;2022-09-01T14:07:45;26.10;99.90
4183;DHT22;2105;52.300;9.182;2022-09-01T14:10:13;26.00;99.90
4183;DHT22;2105;52.300;9.182;2022-09-01T14:12:41;25.90;99.90
4183;DHT22;2105;52.300;9.182;2022-09-01T14:15:09;25.70;99.90
4183;DHT22;2105;52.300;9.182;2022-09-01T14:17:37;25.80;99.90
4183;DHT22;2105;52.300;9.182;2022-09-01T14:20:05;25.80;99.90
4183;DHT22;2105;52.300;9.182;2022-09-01T14:22:34;25.40;99.90
4183;DHT22;2105;52.300;9.182;2022-09-01T14:25:01;25.20;99.90
4183;DHT22;2105;52.300;9.182;2022-09-01T14:27:27;24.90;1.00
4183;DHT22;2105;52.300;9.182;2022-09-01T14:29:54;24.40;1.00
4183;DHT22;2105;52.300;9.182;2022-09-01T14:32:21;24.00;1.00
4183;DHT22;2105;52.300;9.182;2022-09-01T14:34:51;24.10;1.00
4183;DHT22;2105;52.300;9.182;2022-09-01T14:37:18;24.70;1.00
4183;DHT22;2105;52.300;9.182;2022-09-01T14:39:49;25.00;1.00
4183;DHT22;2105;52.300;9.182;2022-09-01T14:42:16;25.10;1.00
4183;DHT22;2105;52.300;9.182;2022-09-01T14:44:43;25.20;1.00
4183;DHT22;2105;52.300;9.182;2022-09-01T14:47:10;25.40;1.00
4183;DHT22;2105;52.300;9.182;2022-09-01T14:49:37;25.70;99.90
4183;DHT22;2105;52.300;9.182;2022-09-01T14:52:05;25.70;99.90
4183;DHT22;2105;52.300;9.182;2022-09-01T14:54:32;25.60;99.90
4183;DHT22;2105;52.300;9.182;2022-09-01T14:57:01;25.70;99.90
4183;DHT22;2105;52.300;9.182;2022-09-01T14:59:28;25.40;99.90
4183;DHT22;2105;52.300;9.182;2022-09-01T15:01:55;25.00;99.90
4183;DHT22;2105;52.300;9.182;2022-09-01T15:04:22;24.80;1.00
4183;DHT22;2105;52.300;9.182;2022-09-01T15:06:48;24.40;1.00
4183;DHT22;2105;52.300;9.182;2022-09-01T15:09:15;24.00;1.00
4183;DHT22;2105;52.300;9.182;2022-09-01T15:11:42;23.80;1.00
4183;DHT22;2105;52.300;9.182;2022-09-01T15:14:10;23.70;1.00
4183;DHT22;2105;52.300;9.182;2022-09-01T15:16:37;23.60;1.00
4183;DHT22;2105;52.300;9.182;2022-09-01T15:19:06;23.60;1.00
4183;DHT22;2105;52.300;9.182;2022-09-01T15:21:35;23.60;1.00
4183;DHT22;2105;52.300;9.182;2022-09-01T15:24:05;23.40;1.00
4183;DHT22;2105;52.300;9.182;2022-09-01T15:26:32;23.20;1.00
4183;DHT22;2105;52.300;9.182;2022-09-01T15:28:59;23.10;1.00
4183;DHT22;2105;52.300;9.182;2022-09-01T15:31:28;23.10;1.00
4183;DHT22;2105;52.300;9.182;2022-09-01T15:33:57;23.10;1.00
4183;DHT22;2105;52.300;9.182;2022-09-01T15:36:26;23.00;1.00
4183;DHT22;2105;52.300;9.182;2022-09-01T15:38:54;22.90;1.00
4183;DHT22;2105;52.300;9.182;2022-09-01T15:41:23;23.00;1.00
4183;DHT22;2105;52.300;9.182;2022-09-01T15:43:50;23.10;1.00
4183;DHT22;2105;52.300;9.182;2022-09-01T15:46:18;23.20;1.00
4183;DHT22;2105;52.300;9.182;2022-09-01T15:48:47;23.10;1.00
4183;DHT22;2105;52.300;9.182;2022-09-01T15:51:29;23.00;1.00
4183;DHT22;2105;52.300;9.182;2022-09-01T15:53:59;23.00;1.00
4183;DHT22;2105;52.300;9.182;2022-09-01T15:56:27;23.10;1.00
4183;DHT22;2105;52.300;9.182;2022-09-01T15:58:56;23.00;1.00
4183;DHT22;2105;52.300;9.182;2022-09-01T16:01:25;23.00;1.00
4183;DHT22;2105;52.300;9.182;2022-09-01T16:03:55;22.90;1.00
4183;DHT22;2105;52.300;9.182;2022-09-01T16:06:22;22.90;1.00
4183;DHT22;2105;52.300;9.182;2022-09-01T16:08:51;22.90;1.00
4183;DHT22;2105;52.300;9.182;2022-09-01T16:11:19;23.00;1.00
4183;DHT22;2105;52.300;9.182;2022-09-01T16:13:48;23.00;1.00
4183;DHT22;2105;52.300;9.182;2022-09-01T16:16:30;23.00;1.00
4183;DHT22;2105;52.300;9.182;2022-09-01T16:19:04;23.00;1.00
4183;DHT22;2105;52.300;9.182;2022-09-01T16:21:40;22.80;1.00
4183;DHT22;2105;52.300;9.182;2022-09-01T16:24:15;22.80;1.00
4183;DHT22;2105;52.300;9.182;2022-09-01T16:26:45;22.70;1.00
4183;DHT22;2105;52.300;9.182;2022-09-01T16:29:18;22.60;1.00
4183;DHT22;2105;52.300;9.182;2022-09-01T16:31:48;22.40;1.00
4183;DHT22;2105;52.300;9.182;2022-09-01T16:34:18;22.40;1.00
4183;DHT22;2105;52.300;9.182;2022-09-01T16:36:55;22.50;1.00
4183;DHT22;2105;52.300;9.182;2022-09-01T16:39:29;22.50;1.00
4183;DHT22;2105;52.300;9.182;2022-09-01T16:42:05;22.50;1.00